createdAt,value
2022-10-29T00:01:06.640Z,101455.75
2022-10-29T00:03:33.143Z,101442.13
2022-10-29T00:06:09.782Z,101454.72
2022-10-29T00:08:39.998Z,101437.19
2022-10-29T00:11:08.260Z,101471.56
2022-10-29T00:13:35.577Z,101443.47
2022-10-29T00:16:11.004Z,101454.78
2022-10-29T00:18:37.682Z,101442.25
2022-10-29T00:21:07.272Z,101439.56
2022-10-29T00:23:34.040Z,101434.88
2022-10-29T00:26:01.204Z,101464.28
2022-10-29T00:28:28.408Z,101467.28
2022-10-29T00:30:57.999Z,101454.28
2022-10-29T00:33:24.624Z,101465.56
2022-10-29T00:35:55.109Z,101491.00
2022-10-29T00:38:21.559Z,101491.31
2022-10-29T00:40:48.078Z,101503.38
2022-10-29T00:43:16.328Z,101488.63
2022-10-29T00:45:57.449Z,101499.09
2022-10-29T00:48:27.384Z,101493.81
2022-10-29T00:50:55.080Z,101501.41
2022-10-29T00:53:26.970Z,101498.69
2022-10-29T00:55:53.416Z,101490.25
2022-10-29T00:58:21.692Z,101465.47
2022-10-29T01:00:48.191Z,101478.56
2022-10-29T01:03:14.680Z,101490.25
2022-10-29T01:05:41.729Z,101491.13
2022-10-29T01:08:08.262Z,101477.09
2022-10-29T01:10:59.846Z,101484.09
2022-10-29T01:13:33.281Z,101493.78
2022-10-29T01:16:30.808Z,101488.88
2022-10-29T01:19:27.150Z,101499.41
2022-10-29T01:22:06.785Z,101487.66
2022-10-29T01:24:42.192Z,101490.47
2022-10-29T01:27:39.724Z,101487.44
2022-10-29T01:30:12.173Z,101487.16
2022-10-29T01:33:00.362Z,101491.66
2022-10-29T01:35:48.148Z,101484.72
2022-10-29T01:38:25.084Z,101486.78
2022-10-29T01:40:58.589Z,101477.91
2022-10-29T01:43:33.516Z,101486.56
2022-10-29T01:46:23.594Z,101513.78
2022-10-29T01:48:57.474Z,101490.78
2022-10-29T01:51:28.574Z,101488.06
2022-10-29T01:53:57.053Z,101492.63
2022-10-29T01:56:23.499Z,101501.41
2022-10-29T01:58:53.596Z,101476.19
2022-10-29T02:01:57.009Z,101499.94
2022-10-29T02:04:52.380Z,101503.19
2022-10-29T02:07:42.557Z,101515.09
2022-10-29T02:10:52.629Z,101520.84
2022-10-29T02:15:52.839Z,101527.41
2022-10-29T02:18:24.533Z,101501.91
2022-10-29T02:20:51.209Z,101508.25
2022-10-29T02:23:17.814Z,101513.56
2022-10-29T02:25:44.557Z,101539.16
2022-10-29T02:28:11.013Z,101543.75
2022-10-29T02:30:37.516Z,101529.88
2022-10-29T02:33:04.251Z,101539.59
2022-10-29T02:35:30.684Z,101559.38
2022-10-29T02:37:57.082Z,101545.72
2022-10-29T02:40:23.566Z,101564.09
2022-10-29T02:42:49.985Z,101547.03
2022-10-29T02:45:16.432Z,101544.97
2022-10-29T02:47:42.997Z,101562.84
2022-10-29T02:50:09.694Z,101534.00
2022-10-29T02:52:36.137Z,101541.84
2022-10-29T02:55:03.008Z,101524.56
2022-10-29T02:57:29.452Z,101547.00
2022-10-29T02:59:57.587Z,101543.03
2022-10-29T03:02:24.256Z,101540.22
2022-10-29T03:04:50.727Z,101552.72
2022-10-29T03:07:17.152Z,101549.91
2022-10-29T03:09:43.579Z,101538.06
2022-10-29T03:12:09.996Z,101543.38
2022-10-29T03:14:36.417Z,101538.19
2022-10-29T03:17:03.045Z,101537.13
2022-10-29T03:19:29.491Z,101551.97
2022-10-29T03:21:55.932Z,101544.00
2022-10-29T03:24:22.348Z,101554.63
2022-10-29T03:26:48.750Z,101548.97
2022-10-29T03:29:15.222Z,101552.84
2022-10-29T03:31:41.648Z,101550.22
2022-10-29T03:34:08.096Z,101525.28
2022-10-29T03:36:34.531Z,101530.84
2022-10-29T03:39:00.962Z,101563.41
2022-10-29T03:41:27.454Z,101552.34
2022-10-29T03:46:20.542Z,101565.94
2022-10-29T03:48:50.267Z,101571.97
2022-10-29T03:51:16.759Z,101555.38
2022-10-29T03:53:43.158Z,101562.03
2022-10-29T03:56:10.206Z,101564.84
2022-10-29T03:58:36.720Z,101567.59
2022-10-29T04:01:05.851Z,101554.69
2022-10-29T04:03:33.890Z,101566.66
2022-10-29T04:06:02.816Z,101570.13
2022-10-29T04:08:29.628Z,101573.88
2022-10-29T04:10:56.027Z,101591.78
2022-10-29T04:13:22.456Z,101569.06
2022-10-29T04:15:48.903Z,101571.44
2022-10-29T04:18:15.451Z,101570.47
2022-10-29T04:21:31.318Z,101583.28
2022-10-29T04:29:02.093Z,101566.34
2022-10-29T04:31:28.604Z,101562.41
2022-10-29T04:33:55.374Z,101579.31
2022-10-29T04:36:21.891Z,101575.72
2022-10-29T04:38:49.816Z,101550.84
2022-10-29T04:41:16.261Z,101565.69
2022-10-29T04:43:42.749Z,101549.59
2022-10-29T04:46:10.609Z,101555.16
2022-10-29T04:48:37.142Z,101537.72
2022-10-29T04:51:03.857Z,101549.56
2022-10-29T04:53:30.759Z,101561.97
2022-10-29T04:56:01.875Z,101565.56
2022-10-29T04:58:28.355Z,101564.53
2022-10-29T05:01:01.171Z,101578.09
2022-10-29T05:03:27.751Z,101594.66
2022-10-29T05:05:54.231Z,101575.34
2022-10-29T05:08:21.654Z,101561.00
2022-10-29T05:10:48.315Z,101564.34
2022-10-29T05:13:14.840Z,101588.66
2022-10-29T05:15:41.876Z,101580.03
2022-10-29T05:18:09.903Z,101601.22
2022-10-29T05:20:36.471Z,101587.41
2022-10-29T05:23:07.953Z,101584.16
2022-10-29T05:25:37.487Z,101572.13
2022-10-29T05:28:05.948Z,101573.81
2022-10-29T05:30:33.301Z,101581.38
2022-10-29T05:33:00.029Z,101579.13
2022-10-29T05:35:26.806Z,101585.22
2022-10-29T05:37:54.324Z,101573.59
2022-10-29T05:40:21.640Z,101586.75
2022-10-29T05:42:51.613Z,101571.09
2022-10-29T05:45:18.272Z,101554.53
2022-10-29T05:47:47.414Z,101559.25
2022-10-29T05:50:14.272Z,101567.00
2022-10-29T05:52:40.984Z,101572.38
2022-10-29T05:55:07.928Z,101566.56
2022-10-29T05:57:34.409Z,101566.78
2022-10-29T06:00:00.874Z,101576.69
2022-10-29T06:02:27.436Z,101586.31
2022-10-29T06:04:53.964Z,101591.69
2022-10-29T06:07:20.419Z,101572.34
2022-10-29T06:09:47.157Z,101582.25
2022-10-29T06:12:13.779Z,101596.09
2022-10-29T06:14:40.304Z,101586.34
2022-10-29T06:17:06.726Z,101570.13
2022-10-29T06:19:33.229Z,101568.56
2022-10-29T06:22:00.624Z,101595.91
2022-10-29T06:24:27.503Z,101591.59
2022-10-29T06:26:54.569Z,101592.13
2022-10-29T06:29:20.997Z,101602.75
2022-10-29T06:31:47.455Z,101610.38
2022-10-29T06:34:14.734Z,101615.63
2022-10-29T06:36:44.293Z,101597.28
2022-10-29T06:39:10.855Z,101577.34
2022-10-29T06:42:04.301Z,101588.19
2022-10-29T06:44:31.026Z,101616.53
2022-10-29T06:47:15.047Z,101633.56
2022-10-29T06:49:47.467Z,101607.47
2022-10-29T06:52:14.089Z,101588.47
2022-10-29T06:54:40.551Z,101598.84
2022-10-29T06:57:07.029Z,101604.53
2022-10-29T06:59:33.470Z,101620.66
2022-10-29T07:02:00.140Z,101620.91
2022-10-29T07:04:26.612Z,101622.88
2022-10-29T07:06:53.030Z,101621.72
2022-10-29T07:09:19.501Z,101614.41
2022-10-29T07:11:45.896Z,101605.91
2022-10-29T07:14:12.304Z,101616.13
2022-10-29T07:16:38.755Z,101626.88
2022-10-29T07:19:05.888Z,101630.75
2022-10-29T07:21:32.369Z,101643.22
2022-10-29T07:23:59.038Z,101636.13
2022-10-29T07:26:25.707Z,101637.72
2022-10-29T07:28:57.036Z,101646.03
2022-10-29T07:31:24.056Z,101651.97
2022-10-29T07:33:50.680Z,101638.91
2022-10-29T07:36:20.224Z,101655.84
2022-10-29T07:38:46.968Z,101658.22
2022-10-29T07:41:13.455Z,101677.88
2022-10-29T07:43:40.090Z,101672.38
2022-10-29T07:46:06.931Z,101622.13
2022-10-29T08:41:58.309Z,101674.97
2022-10-29T08:52:10.211Z,101635.69
2022-10-29T08:54:41.138Z,101662.69
2022-10-29T08:57:18.030Z,101638.72
2022-10-29T09:00:10.864Z,101680.38
2022-10-29T09:02:37.626Z,101666.59
2022-10-29T09:05:14.763Z,101685.47
2022-10-29T09:08:43.632Z,101677.84
2022-10-29T09:11:52.006Z,101698.25
2022-10-29T09:14:59.502Z,101696.94
2022-10-29T09:17:53.896Z,101665.75
2022-10-29T09:20:36.831Z,101672.09
2022-10-29T09:23:21.840Z,101676.69
2022-10-29T09:26:02.856Z,101700.97
2022-10-29T09:28:51.599Z,101679.50
2022-10-29T09:31:34.545Z,101686.06
2022-10-29T09:34:12.561Z,101678.94
2022-10-29T09:36:40.196Z,101702.84
2022-10-29T09:39:24.467Z,101654.72
2022-10-29T09:41:59.040Z,101671.50
2022-10-29T09:44:46.414Z,101646.81
2022-10-29T09:47:40.878Z,101660.53
2022-10-29T09:50:20.230Z,101674.31
2022-10-29T09:53:14.295Z,101625.88
2022-10-29T09:55:53.877Z,101642.97
2022-10-29T10:14:05.591Z,101651.75
2022-10-29T10:16:33.750Z,101646.13
2022-10-29T10:22:47.597Z,101657.53
2022-10-29T10:25:35.949Z,101669.63
2022-10-29T10:31:53.632Z,101641.59
2022-10-29T10:34:36.448Z,101635.19
2022-10-29T10:41:02.401Z,101624.44
2022-10-29T10:43:32.233Z,101592.72
2022-10-29T10:54:12.315Z,101643.38
2022-10-29T11:00:21.961Z,101626.34
2022-10-29T11:03:02.049Z,101642.81
2022-10-29T11:06:44.320Z,101652.94
2022-10-29T11:17:29.978Z,101624.34
2022-10-29T11:24:18.245Z,101610.38
2022-10-29T11:30:47.781Z,101599.25
2022-10-29T11:37:15.266Z,101601.97
2022-10-29T11:39:49.561Z,101588.72
2022-10-29T11:46:13.312Z,101591.38
2022-10-29T11:52:37.488Z,101576.88
2022-10-29T11:55:30.439Z,101560.41
2022-10-29T12:01:52.153Z,101573.84
2022-10-29T12:08:24.002Z,101561.41
2022-10-29T12:14:48.977Z,101550.31
2022-10-29T12:24:54.354Z,101561.31
2022-10-29T12:28:05.402Z,101558.44
2022-10-29T12:34:31.626Z,101531.91
2022-10-29T12:41:12.647Z,101514.19
2022-10-29T12:47:55.323Z,101528.63
2022-10-29T12:50:59.313Z,101505.88
2022-10-29T12:57:15.103Z,101492.63
2022-10-29T12:59:43.457Z,101496.78
2022-10-29T13:06:42.876Z,101481.56
2022-10-29T13:13:13.672Z,101505.13
2022-10-29T13:15:49.259Z,101498.97
2022-10-29T13:26:44.008Z,101488.59
2022-10-29T13:29:10.401Z,101486.81
2022-10-29T13:35:21.339Z,101484.06
2022-10-29T13:41:44.655Z,101465.72
2022-10-29T13:48:05.435Z,101460.31
2022-10-29T13:54:31.119Z,101481.47
2022-10-29T14:11:42.781Z,101428.53
2022-10-29T14:14:35.449Z,101432.13
2022-10-29T14:17:18.302Z,101460.63
2022-10-29T14:24:02.956Z,101454.69
2022-10-29T14:30:17.323Z,101451.59
2022-10-29T14:33:38.474Z,101415.34
2022-10-29T14:47:33.307Z,101441.72
2022-10-29T14:50:06.473Z,101454.69
2022-10-29T14:52:53.599Z,101449.00
2022-10-29T14:59:35.941Z,101447.84
2022-10-29T15:02:36.196Z,101445.41
2022-10-29T15:11:59.595Z,101464.25
2022-10-29T15:38:27.660Z,101402.34
2022-10-29T16:15:23.543Z,101474.72
2022-10-29T16:55:40.667Z,101449.56
2022-10-29T16:58:13.968Z,101407.53
2022-10-29T17:00:40.803Z,101405.56
2022-10-29T17:03:11.512Z,101447.28
2022-10-29T17:07:07.305Z,101444.81
2022-10-29T17:17:48.289Z,101448.91
2022-10-29T17:23:32.124Z,101422.47
2022-10-29T17:26:01.720Z,101418.78
2022-10-29T17:28:48.149Z,101407.88
2022-10-29T17:31:28.616Z,101415.59
2022-10-29T17:34:15.166Z,101443.69
2022-10-29T17:36:51.550Z,101408.03
2022-10-29T17:39:31.891Z,101424.34
2022-10-29T17:41:58.765Z,101447.03
2022-10-29T17:44:28.425Z,101485.41
2022-10-29T17:47:31.301Z,101433.19
2022-10-29T17:50:19.432Z,101444.22
2022-10-29T17:53:01.921Z,101455.59
2022-10-29T17:55:31.167Z,101452.31
2022-10-29T17:58:16.951Z,101447.41
2022-10-29T18:04:09.786Z,101475.63
2022-10-29T18:07:02.334Z,101468.75
2022-10-29T18:10:34.452Z,101449.53
2022-10-29T18:13:42.389Z,101412.34
2022-10-29T18:16:30.363Z,101449.13
2022-10-29T18:19:07.158Z,101455.91
2022-10-29T18:22:00.660Z,101438.84
2022-10-29T18:24:46.053Z,101413.59
2022-10-29T18:27:18.220Z,101407.34
2022-10-29T18:29:50.859Z,101455.16
2022-10-29T18:32:21.107Z,101434.56
2022-10-29T18:34:51.363Z,101414.56
2022-10-29T18:42:02.392Z,101461.41
2022-10-29T18:44:28.965Z,101407.59
2022-10-29T18:48:08.708Z,101400.59
2022-10-29T18:51:16.180Z,101412.34
2022-10-29T20:18:07.122Z,101391.13
2022-10-29T20:20:47.049Z,101412.94
2022-10-29T20:23:19.790Z,101386.00
2022-10-29T20:26:06.135Z,101437.75
2022-10-29T20:28:44.566Z,101378.19
2022-10-29T20:31:26.952Z,101413.69
2022-10-29T20:34:15.765Z,101386.38
2022-10-29T20:37:26.908Z,101442.97
2022-10-29T20:40:24.850Z,101397.16
2022-10-29T20:43:08.484Z,101394.91
2022-10-29T20:45:37.303Z,101427.56
2022-10-29T20:48:04.014Z,101447.84
2022-10-29T20:50:35.970Z,101447.66
2022-10-29T20:59:21.101Z,101384.06
2022-10-29T21:05:23.485Z,101416.41
2022-10-29T21:07:56.091Z,101387.09
2022-10-29T21:10:29.305Z,101382.22
2022-10-29T21:13:00.439Z,101404.34
2022-10-29T21:15:28.055Z,101413.59
2022-10-29T21:25:32.645Z,101379.22
2022-10-29T21:29:07.986Z,101376.25
2022-10-29T21:39:22.907Z,101397.25
2022-10-29T21:42:00.274Z,101377.13
2022-10-29T21:44:38.864Z,101391.84
2022-10-29T21:47:10.294Z,101389.16
2022-10-29T21:49:36.880Z,101391.41
2022-10-29T21:52:03.505Z,101403.44
2022-10-29T21:54:30.052Z,101402.09
2022-10-29T21:56:56.588Z,101398.88
2022-10-29T21:59:23.061Z,101407.50
2022-10-29T22:01:49.871Z,101400.56
2022-10-29T22:04:32.437Z,101391.91
2022-10-29T22:07:03.875Z,101379.53
2022-10-29T22:12:24.966Z,101411.06
2022-10-29T22:14:58.083Z,101364.03
2022-10-29T22:17:27.004Z,101410.13
2022-10-29T22:19:53.527Z,101371.56
2022-10-29T22:22:20.327Z,101392.34
2022-10-29T22:24:46.745Z,101403.19
2022-10-29T22:27:13.235Z,101394.34
2022-10-29T22:29:42.287Z,101380.63
2022-10-29T22:32:18.148Z,101363.44
2022-10-29T22:35:11.342Z,101400.25
2022-10-29T22:37:47.266Z,101391.78
2022-10-29T22:40:17.277Z,101396.59
2022-10-29T22:42:44.123Z,101390.50
2022-10-29T22:45:11.017Z,101426.22
2022-10-29T22:47:40.478Z,101378.22
2022-10-29T22:50:07.458Z,101394.28
2022-10-29T22:52:33.992Z,101394.53
2022-10-29T22:55:00.537Z,101371.25
2022-10-29T22:57:27.019Z,101390.16
2022-10-29T22:59:53.504Z,101358.75
2022-10-29T23:02:31.875Z,101358.00
2022-10-29T23:05:18.317Z,101371.97
2022-10-29T23:07:53.638Z,101377.97
2022-10-29T23:10:22.371Z,101373.53
2022-10-29T23:12:49.209Z,101389.00
2022-10-29T23:15:15.828Z,101409.72
2022-10-29T23:17:42.630Z,101388.81
2022-10-29T23:20:09.465Z,101412.94
2022-10-29T23:22:36.211Z,101373.25
2022-10-29T23:25:02.761Z,101391.16
2022-10-29T23:27:29.387Z,101377.72
2022-10-29T23:29:56.208Z,101350.31
2022-10-29T23:32:22.670Z,101397.66
2022-10-29T23:34:50.158Z,101367.63
2022-10-29T23:37:27.513Z,101371.63
2022-10-29T23:39:54.194Z,101408.09
2022-10-29T23:42:23.434Z,101393.03
2022-10-29T23:44:50.133Z,101380.72
2022-10-29T23:47:17.011Z,101396.19
2022-10-29T23:49:43.896Z,101393.00
2022-10-29T23:52:10.726Z,101359.75
2022-10-29T23:54:37.211Z,101398.81
2022-10-29T23:57:03.870Z,101362.59
2022-10-29T23:59:30.525Z,101371.69
